Dutch
Home     News     Corporate     Events & Tours     Flight ops     Crew centre      
My transavia virtual    Join us    Last logs    Who is flying    Software    Training    VRTS     
 

view flightdata
view flightplan
view OFP
view flightlog



flightdata:
pilot: Tim Mitch Mitchall
flight: TRA4420
from: EDDT (Berlin Tegel)
to: EHAM (Amsterdam Schiphol)
date: 26-03-2020
departure: 09:30z
arrival: 11:05z
duration: 1:35
aircraft: B738 (PHHZX)
distance: 388 NM
touchdown: -270 ft/m @ 135 KIAS



flightplan:
-(FPL-TRA4420-IS
-B738/M-SDEEFGIRWXY/LB1
-EDDT0923
-N0450F300 BRANE Y200 HLZ L980 RKN
-EHAM0055 EHRD
-PBN/A1B1D1O1S1 DOF/200326 REG/PHHZX EET/EDUU0010 EDVV0015 EHAA0035 SEL/LSGP RVR/200 OPR/TRA)



operational flightplan (OFP):
DISPATCH BRIEFING (TEL:
--------- --------- --------- --------- --------- --------- ---------  
PREDEPARTURE ATC CLEARANCE:
.
.
--------- --------- --------- --------- --------- --------- ---------  
OFP  1    26 MAR 20/09:08
                                    OBS  3017

TRA4420    C/S TRA5575  EDDT/TXL   EHAM/AMS         CRZ SYS     CI 15
01122018   PH-HZX       0440/0440  0545/0550        GND DIST      328
B737-800 CFTAB:.....    CTOT:....  STA  0555        AIR DIST      328
                                                    AVG W/C         0
MAXIMUM    ZFW  62731  LAW  66360  TOW  74975       AVG ISA       M14
ESTIMATED  ZFW  58252  LAW  60812  TOW  63196       F-F FACTOR    0.0
ACTUAL     ZFW  .....  LAW  .....  TOW  .....
--------- --------- --------- --------- --------- --------- ---------
TRIP        2384   0055           .....  .....
CONT         182   0005           .....  .....
ALTN         483   0010  EHRD     .....  .....  ....
FINAL       1090   0030           .....  .....
ADDNL        805   0022           .....  .....
TANKERING                  
PLN TOF     4139   0140
DIFF        ....   ....
PLN TOF     ....   ....  (CORRECTED)   
EXTRA          0   ....                  
TOF         4139   ....                 
TAXI         200   ....                  
BLOCK       5144   ....        
--------- --------- --------- --------- --------- --------- ---------
REASON EXTRA FUEL      MATRIX FUEL:
O ECN-ECONAMICAL     O TMP-TEMPORARILY      O ATC-AIR TRAFFIC CNTRL
O FOB-FUEL ON.BOARD  O MSC-MISCELLANEOUS    O FPC-FLIGHT PLN CORR
O WXR-WEATHER        O TEC-TECHNICAL        ACT.CI/CRZ USED: . . .   

--------- --------- --------- --------- --------- --------- ---------

ZFW ZFW 1000 : PLN TOF   XXXXX/TRIP XXXXX 00 MIN HOLD DEST: 0 EXTRA
ZFW ZFW-1000 : PLN TOF   XXXXX/TRIP XXXXX
--------- --------- --------- --------- --------- --------- ---------
COMMANDERS NAME:                           SIGNATURE:

--------- --------- --------- --------- --------- --------- ---------
FROM:  EDDT ELEV122      TO: EHAM ELEV-11        ALTN: EHRD ELEV -14
ATC C/S     : TRA55TRA4420            AVG ISA : M14
CO-ROUTE    :                        AVG TT  :   
FMC-RES FUEL: 1573                   AVG W/C :    0
CRZ ALT     : FL380                  FL310
CI          : CI 15                  FL200     360/000
                                     FL100

EDDT/26R N0450F380 BRAN2N BRANE Y200 HLZ UL980 AMSAN T281 NORKU
NORK2A EHAM/18R

--------- --------- --------- --------- --------- --------- ---------
.
.
--------- --------- --------- --------- --------- --------- ---------
RVSM ALT CHECK:  FL:...... LEFT: ...... STBY: ...... RIGHT: ......


--------- --------- --------- --------- --------- --------- ---------
DESTINATION ALTERNATE EHRD
--------- --------- --------- --------- --------- --------- ---------

--------- --------- --------- --------- --------- --------- ---------
--------- --------- --------- --------- --------- --------- ---------
ALTERNATE SUMMARY
--------- --------- --------- --------- --------- --------- ---------
      ALTN        DIST   LVL       WC TIME  FUEL VIA
      EHRD/24       28  FL040    0 0010   483 AMS
INFO/EBBR/25L     106  FL160    0 0024  1098 KUDA1P WOODY WODY7A
INFO/EHGG/23      109  FL170    0 0025  1111 SPY1P ANDIK N873 GRONY
                                           GRON1G
INFO/EHBK/21      113  FL070    0 0029  1198 LOPI1P LOPIK V33 EHN
                                           P57 OSGOS OSGO1M
--------- --------- --------- --------- --------- --------- ---------



-(FPL-TRA4420-IS
-B738/M-SDEEFGIRWXY/LB1
-EDDT0923
-N0450F300 BRANE Y200 HLZ L980 RKN
-EHAM0055 EHRD
-PBN/A1B1D1O1S1 DOF/200326 REG/PHHZX EET/EDUU0010 EDVV0015 EHAA0035 SEL/LSGP RVR/200 OPR/TRA)

WEATHER BRIEFING - GENERATED 26 MAR 2020 09:08 UTC
--------------------------------------------------------------------------------

EDDT EHAM EHRD EBBR EHGG EHBK

--------------------------------------------------------------------------------
ORIGIN: EDDT (BERLIN)
--------------------------------------------------------------------------------
EDDT 260850Z 08007KT 040V140 CAVOK 05/M08 Q1029 NOSIG

EDDT 260500Z 2606/2706 09007KT CAVOK
      BECMG 2607/2610 09012KT
      BECMG 2616/2619 07002KT


--------------------------------------------------------------------------------
DESTINATION: EHAM (SCHIPHOL)
--------------------------------------------------------------------------------
EHAM 260855Z 08009KT 050V110 CAVOK 07/M05 Q1025 NOSIG

EHAM 260451Z 2606/2712 07010KT CAVOK


--------------------------------------------------------------------------------
ALTERNATE: EHRD (ROTTERDAM)
--------------------------------------------------------------------------------
EHRD 260855Z AUTO 07009KT 040V100 9999 NCD 07/M05 Q1024 NOSIG

EHRD 260451Z 2606/2712 07010KT CAVOK


--------------------------------------------------------------------------------
ALTERNATE: EBBR (BRUSSELS)
--------------------------------------------------------------------------------
EBBR 260850Z 07010KT CAVOK 06/M07 Q1022 NOSIG

EBBR 260520Z 2606/2712 05008KT CAVOK=  EDDF 260500Z 2606/2712 04008KT CAVOK
      BECMG 2606/2609 05013KT PROB30
      TEMPO 2609/2617 06015G25KT
      BECMG 2620/2623 04008KT


--------------------------------------------------------------------------------
ALTERNATE: EHGG (GRONINGEN)
--------------------------------------------------------------------------------
EHGG 260855Z AUTO 08010KT 9999 NCD 06/M06 Q1027 NOSIG

EHGG 260457Z 2606/2712 08008KT CAVOK


--------------------------------------------------------------------------------
ALTERNATE: EHBK (MAASTRICHT)
--------------------------------------------------------------------------------
EHBK 260855Z AUTO 07013KT 040V110 9999 NCD 06/M06 Q1021 NOSIG

EHBK 260457Z 2606/2712 07009KT CAVOK


NOTAM BRIEFING - GENERATED 26 MAR 2020 09:08 UTC
--------------------------------------------------------------------------------

EDDT EHAM EHRD EHRD EBBR EHGG EHBK

--------------------------------------------------------------------------------
GLOBAL TRANSAVIA.COM VIRTUAL NOTAMS
--------------------------------------------------------------------------------
REF:NIL PLEASE CONTACT OPERATIONS IN CASE OF STRUCTURAL FLIGHTPLAN ERRORS ON FLIGHT-OPS@TRANSAVIA-VIRTUAL.COM
VALID:UFN

REF:NIL
PLEASE CHECK ACARS EVERY 10 MINUTES WHEN FLYING WITH SOUND OFF. AN NEW ACARS MESSAGE PRODUCE A SOUND SIGNAL UNTILL ITS READ. FLOWCONTROL DON'T RECEIVE MUCH REACTION ON OUTGOING ACARS MESSAGES ACCORDING FLIGHTSTATUS.
SOURCE: SPL/HV/OCC/
END VALID: UFN

REF:NIL
PLEASE CONTACT FLOWCONTROL IN CASE OF PROBLEMS WITH ROUTINGS
SOURCE: SPL/HV/OCC/
END VALID: UFN

REF:NIL
IN CASE OF ENGINE-OUT FLY V2 OR V2 20 MAX. UNTIL ABOVE MSA.
LEVEL-OFF AT AN ALTITUDE ROUNDED OFF TO THE FIRST 1000 FT OF THE HIGHEST MSA.
E.G: MSA EHAM; 1.7 AND 2.3 LEVEL-OFF 3000 FT. AFTER LANDING MAKE A REP TO OCC ON 131.975
SOURCE:SPL/HV/OCC
END VALID:UFN



flightlog:
Pilot : Tim Mitch Mitchall
Flight: TRA4420
From  : EDDT Berlin
To    : EHAM Schiphol

[FLIGHTLOG] 1.5.4
26-03-2020 09:10:57z, logging started
26-03-2020 09:25:55z, pos report: 008 KIAS, 00 130 ft, heading 070, winds 078 @ 08 kts
26-03-2020 09:30:24z, parking brake released
26-03-2020 09:32:45z, flaps set to 13%
26-03-2020 09:32:52z, flaps set to 25%
26-03-2020 09:40:56z, pos report: 010 KIAS, 00 130 ft, heading 005, winds 079 @ 07 kts
26-03-2020 09:43:22z, take-off at 163 KIAS
26-03-2020 09:43:22z, pos report: 163 KIAS, 00 133 ft, heading 081, winds 057 @ 07 kts
26-03-2020 09:43:22z, flying OFFLINE
26-03-2020 09:43:22z, position: EDDT - Berlin
26-03-2020 09:43:29z, retracted gear at 171 KIAS and 217 ft AGL
26-03-2020 09:43:59z, flaps set to 13%
26-03-2020 09:44:54z, flaps set to 0%
26-03-2020 09:55:57z, pos report: 291 KIAS, 28 666 ft, heading 263, winds 087 @ 22 kts
26-03-2020 10:10:58z, pos report: 277 KIAS, 30 370 ft, heading 270, winds 064 @ 67 kts
26-03-2020 10:25:59z, pos report: 233 KIAS, 11 029 ft, heading 315, winds 071 @ 43 kts
26-03-2020 10:31:33z, flaps set to 13%
26-03-2020 10:32:54z, flaps set to 25%
26-03-2020 10:34:12z, flaps set to 38%
26-03-2020 10:36:37z, flaps set to 50%
26-03-2020 10:41:01z, pos report: 160 KIAS, 04 581 ft, heading 270, winds 083 @ 24 kts
26-03-2020 10:41:19z, above glideslope
26-03-2020 10:42:40z, flaps set to 62%
26-03-2020 10:42:49z, lowered gear at 160 KIAS and 4020 ft AGL
26-03-2020 10:43:59z, on glideslope
26-03-2020 10:44:14z, flaps set to 75%
26-03-2020 10:44:41z, below glideslope
26-03-2020 10:46:11z, flaps set to 87%
26-03-2020 10:47:00z, flaps set to 100%
26-03-2020 10:49:57z, intercepted localizer
26-03-2020 10:51:09z, on glideslope
26-03-2020 10:54:29z, touchdown: -270ft/m at 135 KIAS
26-03-2020 10:54:29z, pos report: 135 KIAS, 00 014 ft, heading 057, winds 055 @ 11 kts
26-03-2020 10:54:29z, flying OFFLINE
26-03-2020 10:54:29z, position: EHAM - Schiphol
26-03-2020 10:55:11z, retracted spoilers
26-03-2020 10:55:15z, flaps set to 87%
26-03-2020 10:55:20z, flaps set to 75%
26-03-2020 10:55:23z, flaps set to 62%
26-03-2020 10:55:25z, flaps set to 50%
26-03-2020 10:55:29z, flaps set to 38%
26-03-2020 10:55:33z, flaps set to 25%
26-03-2020 10:55:37z, flaps set to 13%
26-03-2020 10:55:44z, flaps set to 0%
26-03-2020 10:56:01z, pos report: 024 KIAS, 00 013 ft, heading 016, winds 058 @ 11 kts
26-03-2020 11:05:43z, parking brake set
26-03-2020 11:09:38z, logging ended
26-03-2020 11:09:38z, this flight was flown offline

©2009-2020, transavia virtual. All rights reserved. This website is only meant for simulation purposes.
This website is not owned by transavia, nor is transavia responsible for the content of this website.